Fresno (FAT/KFAT)

Map

Destinations

Information

Location
Fresno, CA
Local Time
21:29 / 9:29 pm
GMT Time
05:29 / 5:29 am
Gates
Unassigned
No FAA reported delays
METAR KFAT 260453Z 18005KT 10SM SCT200 09/02 A3004 RMK AO2 SLP170 T00890017
TAF KFAT 252325Z 2600/2624 VRB04KT P6SM SCT200 FM260400 VRB04KT P6SM BKN100 FM261400 VRB03KT P6SM SCT250
  • No charts available